createdAt,value
2022-12-25T00:02:08.576Z,9.05
2022-12-25T00:04:35.568Z,9.03
2022-12-25T00:07:02.601Z,9.02
2022-12-25T00:09:30.063Z,9.09
2022-12-25T00:11:59.585Z,9.13
2022-12-25T00:14:26.515Z,9.09
2022-12-25T00:16:53.466Z,9.10
2022-12-25T00:19:21.766Z,9.11
2022-12-25T00:21:48.732Z,9.15
2022-12-25T00:24:15.783Z,9.12
2022-12-25T00:26:42.728Z,9.14
2022-12-25T00:29:12.542Z,9.06
2022-12-25T00:31:39.633Z,9.05
2022-12-25T00:34:06.602Z,9.02
2022-12-25T00:36:39.640Z,9.06
2022-12-25T00:39:08.532Z,9.10
2022-12-25T00:41:54.297Z,9.16
2022-12-25T00:44:21.146Z,9.10
2022-12-25T00:46:48.198Z,9.05
2022-12-25T00:49:15.306Z,9.00
2022-12-25T00:51:43.610Z,8.97
2022-12-25T00:54:10.591Z,8.94
2022-12-25T00:56:37.587Z,8.94
2022-12-25T00:59:04.517Z,8.92
2022-12-25T01:01:31.637Z,8.87
2022-12-25T01:03:59.328Z,8.84
2022-12-25T01:06:26.963Z,8.82
2022-12-25T01:09:14.010Z,8.77
2022-12-25T01:11:41.096Z,8.80
2022-12-25T01:14:08.106Z,8.77
2022-12-25T01:16:35.762Z,8.75
2022-12-25T01:19:03.257Z,8.72
2022-12-25T01:21:30.978Z,8.67
2022-12-25T01:23:59.327Z,8.62
2022-12-25T01:26:27.386Z,8.56
2022-12-25T01:28:54.646Z,8.52
2022-12-25T01:31:24.315Z,8.53
2022-12-25T01:33:51.395Z,8.53
2022-12-25T01:36:21.119Z,8.47
2022-12-25T01:38:48.543Z,8.40
2022-12-25T01:41:19.251Z,8.38
2022-12-25T01:44:03.801Z,8.37
2022-12-25T01:46:31.983Z,8.39
2022-12-25T01:49:03.503Z,8.38
2022-12-25T01:51:35.683Z,8.31
2022-12-25T01:54:05.630Z,8.25
2022-12-25T01:56:36.435Z,8.20
2022-12-25T01:59:05.600Z,8.18
2022-12-25T02:01:32.807Z,8.17
2022-12-25T02:04:05.133Z,8.16
2022-12-25T02:06:34.260Z,8.15
2022-12-25T02:09:01.753Z,8.16
2022-12-25T02:11:47.079Z,8.17
2022-12-25T02:14:15.436Z,8.16
2022-12-25T02:16:58.347Z,8.16
2022-12-25T02:19:38.271Z,8.13
2022-12-25T02:22:10.943Z,8.12
2022-12-25T02:24:56.342Z,8.08
2022-12-25T02:27:38.327Z,8.03
2022-12-25T02:30:08.849Z,8.05
2022-12-25T02:32:43.046Z,8.02
2022-12-25T02:35:15.480Z,8.00
2022-12-25T02:37:48.288Z,7.99
2022-12-25T02:40:19.534Z,7.97
2022-12-25T02:43:09.715Z,7.96
2022-12-25T02:46:01.579Z,7.88
2022-12-25T02:48:51.152Z,7.81
2022-12-25T02:51:39.928Z,7.78
2022-12-25T02:54:30.121Z,7.77
2022-12-25T02:57:16.822Z,7.75
2022-12-25T03:00:05.648Z,7.77
2022-12-25T03:02:53.001Z,7.72
2022-12-25T03:05:42.680Z,7.72
2022-12-25T03:08:13.991Z,7.82
2022-12-25T03:11:03.827Z,7.75
2022-12-25T03:13:34.239Z,7.66
2022-12-25T03:16:20.093Z,7.62
2022-12-25T03:18:48.557Z,7.61
2022-12-25T03:21:34.242Z,7.59
2022-12-25T03:24:22.311Z,7.60
2022-12-25T03:26:55.595Z,7.66
2022-12-25T03:29:41.296Z,7.65
2022-12-25T03:32:21.020Z,7.66
2022-12-25T03:35:16.995Z,7.67
2022-12-25T03:38:23.916Z,7.62
2022-12-25T03:41:19.249Z,7.56
2022-12-25T03:44:13.618Z,7.49
2022-12-25T03:47:06.028Z,7.40
2022-12-25T03:49:59.859Z,7.40
2022-12-25T03:52:48.734Z,7.31
2022-12-25T03:55:37.113Z,7.26
2022-12-25T03:58:22.840Z,7.24
2022-12-25T04:01:08.201Z,7.17
2022-12-25T04:03:54.032Z,7.10
2022-12-25T04:06:39.249Z,7.14
2022-12-25T04:09:26.222Z,7.10
2022-12-25T04:12:11.442Z,7.08
2022-12-25T04:14:56.927Z,7.00
2022-12-25T04:17:42.339Z,6.94
2022-12-25T04:20:28.479Z,6.92
2022-12-25T04:23:13.818Z,6.89
2022-12-25T04:26:00.756Z,6.90
2022-12-25T04:28:46.464Z,6.88
2022-12-25T04:31:31.960Z,6.85
2022-12-25T04:34:17.264Z,6.81
2022-12-25T04:36:44.331Z,6.79
2022-12-25T04:39:11.416Z,6.81
2022-12-25T04:41:39.772Z,6.77
2022-12-25T04:44:06.746Z,6.78
2022-12-25T04:46:34.048Z,6.78
2022-12-25T04:49:01.100Z,6.76
2022-12-25T04:51:28.068Z,6.74
2022-12-25T04:53:55.019Z,6.72
2022-12-25T04:56:22.331Z,6.71
2022-12-25T04:58:50.670Z,6.69
2022-12-25T05:01:17.762Z,6.66
2022-12-25T05:03:44.914Z,6.59
2022-12-25T05:06:13.132Z,6.57
2022-12-25T05:08:40.094Z,6.51
2022-12-25T05:11:08.512Z,6.41
2022-12-25T05:13:35.667Z,6.40
2022-12-25T05:16:06.972Z,6.37
2022-12-25T05:18:34.005Z,6.36
2022-12-25T05:21:01.249Z,6.36
2022-12-25T05:23:28.185Z,6.38
2022-12-25T05:25:55.134Z,6.37
2022-12-25T05:28:22.113Z,6.34
2022-12-25T05:30:49.106Z,6.33
2022-12-25T05:33:17.487Z,6.29
2022-12-25T05:35:44.692Z,6.30
2022-12-25T05:38:11.607Z,6.33
2022-12-25T05:40:40.189Z,6.39
2022-12-25T05:43:07.375Z,6.37
2022-12-25T05:45:34.729Z,6.36
2022-12-25T05:48:01.788Z,6.31
2022-12-25T05:50:30.115Z,6.29
2022-12-25T05:53:08.031Z,6.31
2022-12-25T05:55:36.312Z,6.27
2022-12-25T05:58:03.646Z,6.27
2022-12-25T06:00:30.644Z,6.28
2022-12-25T06:02:57.641Z,6.27
2022-12-25T06:05:25.073Z,6.24
2022-12-25T06:07:53.427Z,6.21
2022-12-25T06:10:20.619Z,6.19
2022-12-25T06:12:47.576Z,6.27
2022-12-25T06:15:14.778Z,6.31
2022-12-25T06:17:41.781Z,6.30
2022-12-25T06:20:09.866Z,6.36
2022-12-25T06:22:36.811Z,6.29
2022-12-25T06:25:05.992Z,6.26
2022-12-25T06:27:32.926Z,6.46
2022-12-25T06:29:59.887Z,6.71
2022-12-25T06:32:26.874Z,7.18
2022-12-25T06:34:53.803Z,7.69
2022-12-25T06:37:20.789Z,8.14
2022-12-25T06:39:48.248Z,8.52
2022-12-25T06:42:16.692Z,8.79
2022-12-25T06:44:44.561Z,9.06
2022-12-25T06:47:11.661Z,9.35
2022-12-25T06:49:38.597Z,9.74
2022-12-25T06:52:05.614Z,9.97
2022-12-25T06:54:32.558Z,10.25
2022-12-25T06:56:59.501Z,10.51
2022-12-25T06:59:27.971Z,10.69
2022-12-25T07:01:56.684Z,10.73
2022-12-25T07:04:28.611Z,10.89
2022-12-25T07:06:55.593Z,10.89
2022-12-25T07:09:22.543Z,10.84
2022-12-25T07:11:49.552Z,11.00
2022-12-25T07:14:23.433Z,11.32
2022-12-25T07:16:52.736Z,11.59
2022-12-25T07:19:19.830Z,11.60
2022-12-25T07:21:47.342Z,11.58
2022-12-25T07:24:18.386Z,11.58
2022-12-25T07:26:45.331Z,11.78
2022-12-25T07:29:12.527Z,12.15
2022-12-25T07:31:39.549Z,12.35
2022-12-25T07:34:07.942Z,12.52
2022-12-25T07:36:34.999Z,12.66
2022-12-25T07:39:02.000Z,12.85
2022-12-25T07:41:29.015Z,13.01
2022-12-25T07:44:13.847Z,13.28
2022-12-25T07:46:40.865Z,13.61
2022-12-25T07:49:10.146Z,13.88
2022-12-25T07:51:37.184Z,13.97
2022-12-25T07:54:07.263Z,14.10
2022-12-25T07:56:34.331Z,14.18
2022-12-25T07:59:01.319Z,14.34
2022-12-25T08:01:29.655Z,14.47
2022-12-25T08:03:58.758Z,14.45
2022-12-25T08:06:30.422Z,14.40
2022-12-25T08:08:57.803Z,14.45
2022-12-25T08:11:24.779Z,14.54
2022-12-25T08:13:51.763Z,14.58
2022-12-25T08:16:18.818Z,14.73
2022-12-25T08:18:45.830Z,14.98
2022-12-25T08:21:14.212Z,15.08
2022-12-25T08:23:44.535Z,15.29
2022-12-25T08:26:14.334Z,15.45
2022-12-25T08:28:41.464Z,15.45
2022-12-25T08:31:10.964Z,15.53
2022-12-25T08:33:38.337Z,15.62
2022-12-25T08:36:07.220Z,15.78
2022-12-25T08:38:34.395Z,16.05
2022-12-25T08:41:02.707Z,16.38
2022-12-25T08:43:30.179Z,16.63
2022-12-25T08:45:57.338Z,16.71
2022-12-25T08:48:24.379Z,16.82
2022-12-25T08:50:52.931Z,16.83
2022-12-25T08:53:20.983Z,17.00
2022-12-25T08:55:47.939Z,17.21
2022-12-25T08:58:16.715Z,17.43
2022-12-25T09:00:43.740Z,17.71
2022-12-25T09:03:10.789Z,17.67
2022-12-25T09:05:37.861Z,17.49
2022-12-25T09:08:05.257Z,17.44
2022-12-25T09:10:35.451Z,17.60
2022-12-25T09:13:02.447Z,17.65
2022-12-25T09:15:31.190Z,17.64
2022-12-25T09:17:58.220Z,17.66
2022-12-25T09:20:25.154Z,17.78
2022-12-25T09:22:52.111Z,17.84
2022-12-25T09:25:19.072Z,18.02
2022-12-25T09:27:46.066Z,18.05
2022-12-25T09:30:13.316Z,18.00
2022-12-25T09:32:41.679Z,17.96
2022-12-25T09:35:09.205Z,17.94
2022-12-25T09:37:36.278Z,17.97
2022-12-25T09:40:04.601Z,17.99
2022-12-25T09:42:34.415Z,17.79
2022-12-25T09:45:05.802Z,17.61
2022-12-25T09:47:36.198Z,17.30
2022-12-25T09:50:11.281Z,17.34
2022-12-25T09:52:41.722Z,17.59
2022-12-25T09:55:18.088Z,17.77
2022-12-25T09:57:50.549Z,17.82
2022-12-25T10:00:20.164Z,17.49
2022-12-25T10:02:59.567Z,17.44
2022-12-25T10:05:55.896Z,17.47
2022-12-25T10:08:36.100Z,17.59
2022-12-25T10:11:13.116Z,17.70
2022-12-25T10:13:57.444Z,17.63
2022-12-25T10:16:31.929Z,17.49
2022-12-25T10:19:14.372Z,17.64
2022-12-25T10:21:42.981Z,17.80
2022-12-25T10:24:23.607Z,17.76
2022-12-25T10:26:53.326Z,17.79
2022-12-25T10:29:20.352Z,17.85
2022-12-25T10:31:49.876Z,17.90
2022-12-25T10:34:17.685Z,17.84
2022-12-25T10:36:46.668Z,17.79
2022-12-25T10:39:17.676Z,17.84
2022-12-25T10:42:08.394Z,17.73
2022-12-25T10:44:35.604Z,17.63
2022-12-25T10:47:04.518Z,17.58
2022-12-25T10:49:34.787Z,17.51
2022-12-25T10:52:04.062Z,17.40
2022-12-25T10:54:32.689Z,17.49
2022-12-25T10:57:01.426Z,17.39
2022-12-25T10:59:30.110Z,17.50
2022-12-25T11:02:05.393Z,17.38
2022-12-25T11:04:35.643Z,17.16
2022-12-25T11:07:07.551Z,17.01
2022-12-25T11:09:34.877Z,16.91
2022-12-25T11:12:02.426Z,16.91
2022-12-25T11:14:30.673Z,16.78
2022-12-25T11:17:08.450Z,16.65
2022-12-25T11:19:35.547Z,16.65
2022-12-25T11:22:05.318Z,16.65
2022-12-25T11:24:33.628Z,16.61
2022-12-25T11:27:02.812Z,16.72
2022-12-25T11:29:36.931Z,16.84
2022-12-25T11:32:07.353Z,16.97
2022-12-25T11:34:41.493Z,16.87
2022-12-25T11:37:15.799Z,16.80
2022-12-25T11:39:42.976Z,16.73
2022-12-25T11:42:18.183Z,16.70
2022-12-25T11:44:47.259Z,16.90
2022-12-25T11:47:19.220Z,16.96
2022-12-25T11:50:00.040Z,17.26
2022-12-25T11:52:33.956Z,17.60
2022-12-25T11:55:07.262Z,17.52
2022-12-25T11:57:35.985Z,17.40
2022-12-25T12:00:10.185Z,17.24
2022-12-25T12:02:43.101Z,17.22
2022-12-25T12:05:18.991Z,17.27
2022-12-25T12:07:57.806Z,17.36
2022-12-25T12:10:33.507Z,17.54
2022-12-25T12:13:06.583Z,17.67
2022-12-25T12:15:42.333Z,17.45
2022-12-25T12:18:10.301Z,17.28
2022-12-25T12:20:38.011Z,17.05
2022-12-25T12:23:16.786Z,17.10
2022-12-25T12:25:45.133Z,17.16
2022-12-25T12:28:21.434Z,17.19
2022-12-25T12:30:58.564Z,17.39
2022-12-25T12:33:29.635Z,17.59
2022-12-25T12:35:57.514Z,17.80
2022-12-25T12:38:26.135Z,17.90
2022-12-25T12:40:55.502Z,18.06
2022-12-25T12:43:30.300Z,18.18
2022-12-25T12:46:02.198Z,18.20
2022-12-25T12:48:37.015Z,18.20
2022-12-25T12:51:05.352Z,18.23
2022-12-25T12:53:34.944Z,18.13
2022-12-25T12:56:16.221Z,18.02
2022-12-25T12:58:48.383Z,18.08
2022-12-25T13:01:45.323Z,18.12
2022-12-25T13:04:49.224Z,18.18
2022-12-25T13:07:30.363Z,18.09
2022-12-25T13:10:12.691Z,18.02
2022-12-25T13:12:39.860Z,17.98
2022-12-25T13:15:12.868Z,17.83
2022-12-25T13:17:43.464Z,17.57
2022-12-25T13:20:20.745Z,17.26
2022-12-25T13:22:52.549Z,17.10
2022-12-25T13:25:22.692Z,16.88
2022-12-25T13:27:55.774Z,16.71
2022-12-25T13:30:24.425Z,16.51
2022-12-25T13:32:51.598Z,16.40
2022-12-25T13:35:21.215Z,16.41
2022-12-25T13:37:48.725Z,16.32
2022-12-25T13:40:24.354Z,16.12
2022-12-25T13:42:55.263Z,15.98
2022-12-25T13:45:24.602Z,15.78
2022-12-25T13:47:55.463Z,15.64
2022-12-25T13:50:25.917Z,15.58
2022-12-25T13:52:53.823Z,15.57
2022-12-25T13:55:23.942Z,15.48
2022-12-25T13:57:54.531Z,15.46
2022-12-25T14:00:27.201Z,15.50
2022-12-25T14:02:55.021Z,15.56
2022-12-25T14:05:28.473Z,15.66
2022-12-25T14:07:59.208Z,15.74
2022-12-25T14:10:30.330Z,15.76
2022-12-25T14:13:02.166Z,15.75
2022-12-25T14:15:32.146Z,15.68
2022-12-25T14:17:59.539Z,15.63
2022-12-25T14:20:29.507Z,15.65
2022-12-25T14:22:58.255Z,15.62
2022-12-25T14:25:31.193Z,15.55
2022-12-25T14:28:01.013Z,15.41
2022-12-25T14:30:29.730Z,15.28
2022-12-25T14:32:57.579Z,15.09
2022-12-25T14:35:25.791Z,14.89
2022-12-25T14:37:56.897Z,14.68
2022-12-25T14:40:27.104Z,14.49
2022-12-25T14:43:00.130Z,14.32
2022-12-25T14:45:31.011Z,14.17
2022-12-25T14:48:00.909Z,14.06
2022-12-25T14:50:31.004Z,13.94
2022-12-25T14:52:59.459Z,13.74
2022-12-25T14:55:28.711Z,13.54
2022-12-25T14:57:59.860Z,13.37
2022-12-25T15:00:31.811Z,13.21
2022-12-25T15:03:00.075Z,13.08
2022-12-25T15:05:32.926Z,12.89
2022-12-25T15:08:19.017Z,12.77
2022-12-25T15:10:59.631Z,12.64
2022-12-25T15:13:30.332Z,12.52
2022-12-25T15:16:01.069Z,12.43
2022-12-25T15:18:31.894Z,12.31
2022-12-25T15:20:59.139Z,12.20
2022-12-25T15:23:26.116Z,12.08
2022-12-25T15:25:53.382Z,11.98
2022-12-25T15:28:20.836Z,11.95
2022-12-25T15:30:50.004Z,11.90
2022-12-25T15:33:18.527Z,11.86
2022-12-25T15:35:46.006Z,11.80
2022-12-25T15:38:13.274Z,11.76
2022-12-25T15:40:41.192Z,11.74
2022-12-25T15:43:39.011Z,11.70
2022-12-25T15:46:00.513Z,11.65
2022-12-25T15:48:27.467Z,11.54
2022-12-25T15:50:54.421Z,11.45
2022-12-25T15:53:21.366Z,11.39
2022-12-25T15:55:49.253Z,11.32
2022-12-25T15:58:16.227Z,11.23
2022-12-25T16:00:43.197Z,11.15
2022-12-25T16:03:11.913Z,11.10
2022-12-25T16:05:38.994Z,11.04
2022-12-25T16:08:06.244Z,10.94
2022-12-25T16:10:38.395Z,10.85
2022-12-25T16:13:06.072Z,10.77
2022-12-25T16:15:33.306Z,10.67
2022-12-25T16:18:00.415Z,10.59
2022-12-25T16:20:28.985Z,10.56
2022-12-25T16:22:55.929Z,10.52
2022-12-25T16:25:23.526Z,10.50
2022-12-25T16:27:50.652Z,10.47
2022-12-25T16:30:18.549Z,10.44
2022-12-25T16:32:49.378Z,10.36
2022-12-25T16:35:17.788Z,10.28
2022-12-25T16:37:46.172Z,10.22
2022-12-25T16:40:13.344Z,10.17
2022-12-25T16:42:40.471Z,10.09
2022-12-25T16:45:08.220Z,10.03
2022-12-25T16:47:35.320Z,9.91
2022-12-25T16:50:07.324Z,9.82
2022-12-25T16:52:35.011Z,9.68
2022-12-25T16:55:04.505Z,9.62
2022-12-25T16:57:31.763Z,9.57
2022-12-25T16:59:58.928Z,9.51
2022-12-25T17:02:26.023Z,9.43
2022-12-25T17:04:53.143Z,9.34
2022-12-25T17:07:20.055Z,9.31
2022-12-25T17:09:48.250Z,9.32
2022-12-25T17:12:16.935Z,9.27
2022-12-25T17:14:43.980Z,9.23
2022-12-25T17:17:11.073Z,9.21
2022-12-25T17:19:38.282Z,9.19
2022-12-25T17:22:05.373Z,9.16
2022-12-25T17:24:35.390Z,9.14
2022-12-25T17:27:02.447Z,9.07
2022-12-25T17:29:32.114Z,8.98
2022-12-25T17:31:59.242Z,8.86
2022-12-25T17:34:26.364Z,8.70
2022-12-25T17:36:54.335Z,8.68
2022-12-25T17:39:21.304Z,8.69
2022-12-25T17:41:49.296Z,8.65
2022-12-25T17:44:16.439Z,8.57
2022-12-25T17:46:44.758Z,8.54
2022-12-25T17:49:15.442Z,8.44
2022-12-25T17:51:42.535Z,8.29
2022-12-25T17:54:10.188Z,8.12
2022-12-25T17:56:38.061Z,7.98
2022-12-25T17:59:10.864Z,7.95
2022-12-25T18:01:38.926Z,7.80
2022-12-25T18:04:07.805Z,7.82
2022-12-25T18:06:36.205Z,7.86
2022-12-25T18:09:06.116Z,7.90
2022-12-25T18:11:33.281Z,7.75
2022-12-25T18:14:02.425Z,7.53
2022-12-25T18:16:32.323Z,7.39
2022-12-25T18:18:59.732Z,7.31
2022-12-25T18:21:30.661Z,7.26
2022-12-25T18:23:57.974Z,7.30
2022-12-25T18:26:26.048Z,7.38
2022-12-25T18:28:53.209Z,7.43
2022-12-25T18:31:22.309Z,7.42
2022-12-25T18:33:50.550Z,7.31
2022-12-25T18:36:20.264Z,7.21
2022-12-25T18:38:49.125Z,7.14
2022-12-25T18:41:16.756Z,7.12
2022-12-25T18:43:54.412Z,7.06
2022-12-25T18:46:24.285Z,7.01
2022-12-25T18:48:51.697Z,6.95
2022-12-25T18:51:18.770Z,6.92
2022-12-25T18:53:46.100Z,6.92
2022-12-25T18:56:17.499Z,6.93
2022-12-25T18:58:45.478Z,6.95
2022-12-25T19:01:14.480Z,7.02
2022-12-25T19:03:41.935Z,7.09
2022-12-25T19:06:09.110Z,7.09
2022-12-25T19:08:36.165Z,7.06
2022-12-25T19:11:07.673Z,6.98
2022-12-25T19:13:36.084Z,6.96
2022-12-25T19:16:03.323Z,6.99
2022-12-25T19:18:30.816Z,6.99
2022-12-25T19:21:01.465Z,6.93
2022-12-25T19:23:28.822Z,6.83
2022-12-25T19:25:55.764Z,6.81
2022-12-25T19:28:24.938Z,6.82
2022-12-25T19:30:54.304Z,6.79
2022-12-25T19:33:22.841Z,6.82
2022-12-25T19:35:50.094Z,6.73
2022-12-25T19:38:17.156Z,6.66
2022-12-25T19:41:00.556Z,6.66
2022-12-25T19:43:28.425Z,6.69
2022-12-25T19:45:57.152Z,6.72
2022-12-25T19:48:24.631Z,6.75
2022-12-25T19:50:52.372Z,6.76
2022-12-25T19:53:21.537Z,6.73
2022-12-25T19:55:48.644Z,6.69
2022-12-25T19:58:15.723Z,6.68
2022-12-25T20:00:43.714Z,6.58
2022-12-25T20:03:12.383Z,6.54
2022-12-25T20:05:39.341Z,6.49
2022-12-25T20:08:06.356Z,6.46
2022-12-25T20:10:33.637Z,6.47
2022-12-25T20:13:00.631Z,6.45
2022-12-25T20:15:27.695Z,6.34
2022-12-25T20:17:54.733Z,6.28
2022-12-25T20:20:23.087Z,6.26
2022-12-25T20:22:50.861Z,6.21
2022-12-25T20:25:17.882Z,6.23
2022-12-25T20:27:44.868Z,6.21
2022-12-25T20:30:13.119Z,6.19
2022-12-25T20:32:43.666Z,6.14
2022-12-25T20:35:16.308Z,6.08
2022-12-25T20:37:45.063Z,6.03
2022-12-25T20:40:12.967Z,5.97
2022-12-25T20:42:39.932Z,5.86
2022-12-25T20:45:07.945Z,5.76
2022-12-25T20:47:35.425Z,5.68
2022-12-25T20:50:02.465Z,5.58
2022-12-25T20:52:29.461Z,5.58
2022-12-25T20:54:57.953Z,5.62
2022-12-25T20:57:26.034Z,5.54
2022-12-25T20:59:54.470Z,5.53
2022-12-25T21:02:34.620Z,5.50
2022-12-25T21:05:03.427Z,5.55
2022-12-25T21:07:30.461Z,5.55
2022-12-25T21:09:59.887Z,5.59
2022-12-25T21:12:26.827Z,5.59
2022-12-25T21:14:53.771Z,5.60
2022-12-25T21:17:21.198Z,5.55
2022-12-25T21:19:48.226Z,5.50
2022-12-25T21:22:15.157Z,5.48
2022-12-25T21:24:42.268Z,5.41
2022-12-25T21:27:10.629Z,5.38
2022-12-25T21:29:37.957Z,5.36
2022-12-25T21:32:23.665Z,5.30
2022-12-25T21:34:50.501Z,5.30
2022-12-25T21:37:17.401Z,5.29
2022-12-25T21:39:44.339Z,5.21
2022-12-25T21:42:12.672Z,5.17
2022-12-25T21:44:39.609Z,5.14
2022-12-25T21:47:06.539Z,5.15
2022-12-25T21:49:52.164Z,5.18
2022-12-25T21:52:19.063Z,5.21
2022-12-25T21:54:45.994Z,5.25
2022-12-25T21:57:14.632Z,5.22
2022-12-25T21:59:41.543Z,5.19
2022-12-25T22:02:11.479Z,5.17
2022-12-25T22:04:39.363Z,5.21
2022-12-25T22:07:18.708Z,5.26
2022-12-25T22:09:46.737Z,5.32
2022-12-25T22:12:35.034Z,5.29
2022-12-25T22:15:06.485Z,5.32
2022-12-25T22:17:54.710Z,5.33
2022-12-25T22:20:23.761Z,5.32
2022-12-25T22:22:51.346Z,5.31
2022-12-25T22:25:19.244Z,5.30
2022-12-25T22:27:48.652Z,5.25
2022-12-25T22:30:17.505Z,5.28
2022-12-25T22:32:44.982Z,5.26
2022-12-25T22:35:13.166Z,5.24
2022-12-25T22:37:41.165Z,5.21
2022-12-25T22:40:09.970Z,5.17
2022-12-25T22:42:37.441Z,5.10
2022-12-25T22:45:06.772Z,5.05
2022-12-25T22:47:33.750Z,5.01
2022-12-25T22:50:00.944Z,4.94
2022-12-25T22:52:27.957Z,4.86
2022-12-25T22:54:55.017Z,4.82
2022-12-25T22:57:22.178Z,4.76
2022-12-25T22:59:51.241Z,4.67
2022-12-25T23:02:19.891Z,4.60
2022-12-25T23:04:47.161Z,4.53
2022-12-25T23:07:15.158Z,4.49
2022-12-25T23:09:42.543Z,4.45
2022-12-25T23:12:29.886Z,4.42
2022-12-25T23:14:57.031Z,4.38
2022-12-25T23:17:43.929Z,4.33
2022-12-25T23:20:46.403Z,4.27
2022-12-25T23:23:34.187Z,4.21
2022-12-25T23:26:07.539Z,4.15
2022-12-25T23:28:53.505Z,4.11
2022-12-25T23:31:24.446Z,4.07
2022-12-25T23:33:52.864Z,4.05
2022-12-25T23:36:19.884Z,4.00
2022-12-25T23:38:46.850Z,4.00
2022-12-25T23:41:13.819Z,3.93
2022-12-25T23:43:41.424Z,3.92
2022-12-25T23:46:08.387Z,3.93
2022-12-25T23:48:35.422Z,3.94
2022-12-25T23:51:05.702Z,3.90
2022-12-25T23:53:33.415Z,3.86
2022-12-25T23:56:00.591Z,3.84
2022-12-25T23:58:29.082Z,3.79
